createdAt,value
2022-09-09T00:03:48.544Z,7.03
2022-09-09T00:09:01.926Z,6.72
2022-09-09T00:14:14.701Z,6.53
2022-09-09T00:19:24.462Z,6.15
2022-09-09T00:24:33.487Z,6.93
2022-09-09T00:29:43.959Z,7.70
2022-09-09T00:34:50.749Z,7.50
2022-09-09T00:39:58.733Z,7.00
2022-09-09T00:45:18.329Z,6.57
2022-09-09T00:50:36.157Z,6.47
2022-09-09T00:55:46.259Z,6.28
2022-09-09T01:00:53.974Z,6.13
2022-09-09T01:06:16.154Z,6.75
2022-09-09T01:11:24.688Z,6.13
2022-09-09T01:16:30.729Z,6.60
2022-09-09T01:21:43.554Z,7.85
2022-09-09T01:26:49.319Z,7.63
2022-09-09T01:31:57.349Z,8.45
2022-09-09T01:37:04.240Z,8.05
2022-09-09T01:42:11.303Z,7.30
2022-09-09T01:47:13.694Z,8.35
2022-09-09T01:52:16.318Z,8.23
2022-09-09T01:57:26.417Z,7.00
2022-09-09T02:02:33.507Z,7.68
2022-09-09T02:07:41.706Z,6.43
2022-09-09T02:12:49.867Z,8.25
2022-09-09T02:17:57.295Z,8.00
2022-09-09T02:23:02.340Z,7.65
2022-09-09T02:28:10.682Z,7.35
2022-09-09T02:33:15.377Z,7.20
2022-09-09T02:38:18.884Z,7.60
2022-09-09T02:43:23.289Z,8.13
2022-09-09T02:48:32.563Z,7.07
2022-09-09T02:53:42.817Z,7.68
2022-09-09T02:58:46.866Z,7.88
2022-09-09T03:03:49.307Z,7.50
2022-09-09T03:08:51.592Z,7.38
2022-09-09T03:13:56.470Z,7.88
2022-09-09T03:18:58.965Z,8.23
2022-09-09T03:24:02.025Z,7.72
2022-09-09T03:29:07.137Z,7.63
2022-09-09T03:34:09.760Z,7.70
2022-09-09T03:39:12.455Z,7.88
2022-09-09T03:44:16.559Z,7.97
2022-09-09T03:49:19.366Z,6.85
2022-09-09T03:54:22.029Z,6.88
2022-09-09T03:59:26.167Z,6.55
2022-09-09T04:04:29.113Z,6.65
2022-09-09T04:09:31.564Z,7.55
2022-09-09T04:14:47.180Z,6.47
2022-09-09T04:19:49.673Z,6.95
2022-09-09T04:24:51.991Z,6.85
2022-09-09T04:29:56.678Z,6.28
2022-09-09T04:34:59.183Z,5.57
2022-09-09T04:40:05.777Z,5.60
2022-09-09T04:45:11.128Z,6.00
2022-09-09T04:50:13.607Z,5.47
2022-09-09T04:55:16.170Z,6.03
2022-09-09T05:00:20.649Z,6.22
2022-09-09T05:05:24.746Z,5.55
2022-09-09T05:10:27.841Z,5.20
2022-09-09T05:15:32.060Z,5.28
2022-09-09T05:20:34.429Z,4.97
2022-09-09T05:25:37.040Z,5.70
2022-09-09T05:30:40.890Z,5.18
2022-09-09T05:35:43.602Z,5.47
2022-09-09T05:40:48.906Z,6.00
2022-09-09T05:46:03.996Z,4.28
2022-09-09T05:57:34.092Z,2.65
2022-09-09T06:02:38.524Z,2.00
2022-09-09T06:07:41.249Z,2.28
2022-09-09T06:12:44.217Z,2.25
2022-09-09T06:17:48.053Z,1.90
2022-09-09T06:22:50.438Z,2.00
2022-09-09T06:27:52.998Z,2.10
2022-09-09T06:33:01.440Z,2.60
2022-09-09T06:38:03.990Z,2.70
2022-09-09T06:43:06.752Z,2.75
2022-09-09T06:48:11.098Z,3.20
2022-09-09T06:53:17.070Z,2.55
2022-09-09T06:58:19.744Z,2.92
2022-09-09T07:03:23.932Z,2.83
2022-09-09T07:08:27.023Z,3.47
2022-09-09T07:13:29.679Z,3.08
2022-09-09T07:18:34.093Z,2.85
2022-09-09T07:23:36.709Z,3.17
2022-09-09T07:28:40.204Z,2.78
2022-09-09T07:33:45.267Z,2.83
2022-09-09T07:38:50.040Z,2.80
2022-09-09T07:44:06.101Z,3.38
2022-09-09T07:54:15.951Z,2.45
2022-09-09T07:59:21.470Z,2.72
2022-09-09T08:04:29.890Z,2.30
2022-09-09T08:09:33.678Z,2.65
2022-09-09T08:15:05.539Z,2.80
2022-09-09T08:20:10.569Z,2.80
2022-09-09T08:25:13.643Z,3.00
2022-09-09T08:30:16.099Z,2.85
2022-09-09T08:35:21.350Z,3.35
2022-09-09T08:40:33.952Z,3.25
2022-09-09T08:45:51.740Z,2.90
2022-09-09T08:57:00.868Z,2.50
2022-09-09T09:02:16.487Z,3.13
2022-09-09T09:07:57.009Z,3.13
2022-09-09T09:25:17.552Z,3.38
2022-09-09T09:30:28.974Z,3.10
2022-09-09T09:35:35.170Z,2.65
2022-09-09T09:40:51.442Z,2.70
2022-09-09T09:46:14.340Z,2.03
2022-09-09T09:51:23.793Z,1.77
2022-09-09T09:56:31.592Z,1.85
2022-09-09T10:01:35.723Z,1.73
2022-09-09T10:06:38.856Z,1.80
2022-09-09T10:11:51.375Z,2.47
2022-09-09T10:17:07.816Z,2.00
2022-09-09T10:27:26.109Z,2.00
2022-09-09T10:32:49.380Z,2.08
2022-09-09T10:38:07.055Z,2.65
2022-09-09T10:43:21.029Z,2.40
2022-09-09T10:48:43.646Z,2.42
2022-09-09T10:53:56.912Z,2.28
2022-09-09T10:59:09.164Z,2.10
2022-09-09T11:04:20.680Z,2.75
2022-09-09T11:09:28.570Z,3.05
2022-09-09T11:14:42.761Z,2.75
2022-09-09T11:19:46.422Z,2.63
2022-09-09T11:24:54.601Z,2.30
2022-09-09T11:30:55.530Z,2.28
2022-09-09T11:36:27.373Z,2.90
2022-09-09T11:41:37.410Z,2.83
2022-09-09T11:46:43.421Z,3.03
2022-09-09T11:51:46.102Z,3.00
2022-09-09T11:56:48.764Z,3.30
2022-09-09T12:01:58.091Z,2.47
2022-09-09T12:07:05.077Z,2.90
2022-09-09T12:12:28.367Z,2.80
2022-09-09T12:17:42.952Z,2.80
2022-09-09T12:23:22.911Z,2.65
2022-09-09T12:28:37.552Z,2.80
2022-09-09T12:33:42.174Z,3.17
2022-09-09T12:38:45.658Z,2.42
2022-09-09T12:43:48.757Z,3.00
2022-09-09T12:48:53.958Z,2.65
2022-09-09T12:53:58.924Z,2.78
2022-09-09T12:59:02.442Z,4.57
2022-09-09T13:04:22.116Z,3.05
2022-09-09T13:09:25.004Z,2.58
2022-09-09T13:14:32.671Z,2.28
2022-09-09T13:19:39.512Z,2.30
2022-09-09T13:29:53.717Z,2.50
2022-09-09T13:35:07.048Z,2.60
2022-09-09T13:40:21.774Z,2.90
2022-09-09T13:45:29.113Z,2.50
2022-09-09T13:50:33.725Z,2.10
2022-09-09T13:55:38.697Z,2.35
2022-09-09T14:00:42.108Z,2.42
2022-09-09T14:05:48.479Z,2.30
2022-09-09T14:10:51.161Z,2.23
2022-09-09T14:15:54.232Z,1.70
2022-09-09T14:20:58.946Z,1.80
2022-09-09T14:26:01.693Z,2.10
2022-09-09T14:31:05.651Z,1.98
2022-09-09T14:36:12.011Z,1.80
2022-09-09T14:41:17.586Z,2.47
2022-09-09T14:46:21.624Z,1.80
2022-09-09T14:51:27.404Z,1.90
2022-09-09T14:56:32.708Z,2.17
2022-09-09T15:01:35.495Z,2.33
2022-09-09T15:06:39.796Z,3.40
2022-09-09T15:11:42.814Z,2.85
2022-09-09T15:16:45.313Z,2.78
2022-09-09T15:21:49.632Z,2.50
2022-09-09T15:26:52.662Z,2.83
2022-09-09T15:31:56.571Z,2.30
2022-09-09T15:37:00.489Z,1.92
2022-09-09T15:42:06.637Z,1.02
2022-09-09T15:47:11.649Z,1.10
2022-09-09T15:52:22.726Z,1.05
2022-09-09T15:57:28.110Z,1.17
2022-09-09T16:02:42.526Z,3.95
2022-09-09T16:07:50.180Z,2.45
2022-09-09T16:12:59.203Z,5.18
2022-09-09T16:18:02.137Z,2.92
2022-09-09T16:23:09.298Z,3.33
2022-09-09T16:33:21.685Z,3.53
2022-09-09T16:38:32.714Z,4.05
2022-09-09T16:43:41.664Z,2.88
2022-09-09T16:48:52.558Z,3.40
2022-09-09T16:54:00.973Z,3.55
2022-09-09T16:59:06.102Z,4.30
2022-09-09T17:04:12.935Z,3.97
2022-09-09T17:09:25.503Z,4.32
2022-09-09T17:14:35.168Z,3.90
2022-09-09T17:19:41.166Z,4.32
2022-09-09T17:25:11.394Z,4.10
2022-09-09T17:30:28.799Z,3.58
2022-09-09T17:38:37.924Z,3.72
2022-09-09T17:43:41.872Z,4.30
2022-09-09T17:48:46.125Z,3.63
2022-09-09T17:53:52.091Z,3.83
2022-09-09T17:58:55.098Z,3.50
2022-09-09T18:04:00.437Z,3.75
2022-09-09T18:09:08.226Z,3.63
2022-09-09T18:14:16.026Z,4.18
2022-09-09T18:19:24.048Z,3.97
2022-09-09T18:30:40.193Z,3.95
2022-09-09T18:35:43.410Z,3.47
2022-09-09T18:40:46.575Z,4.28
2022-09-09T18:45:51.038Z,3.63
2022-09-09T18:50:54.903Z,3.60
2022-09-09T18:56:02.363Z,3.80
2022-09-09T19:01:10.803Z,3.70
2022-09-09T19:06:16.223Z,3.95
2022-09-09T19:11:21.019Z,3.65
2022-09-09T19:16:26.671Z,3.75
2022-09-09T19:21:38.115Z,4.28
2022-09-09T19:26:42.942Z,3.92
2022-09-09T19:32:02.200Z,3.75
2022-09-09T19:37:11.729Z,3.88
2022-09-09T19:42:18.110Z,4.15
2022-09-09T19:47:22.455Z,4.32
2022-09-09T19:52:25.092Z,4.35
2022-09-09T19:57:29.348Z,4.85
2022-09-09T20:02:33.557Z,4.85
2022-09-09T20:07:36.399Z,5.70
2022-09-09T20:12:40.070Z,5.35
2022-09-09T20:17:44.848Z,5.28
2022-09-09T20:22:52.080Z,4.93
2022-09-09T20:33:05.192Z,5.05
2022-09-09T20:38:07.840Z,5.05
2022-09-09T20:43:12.203Z,5.20
2022-09-09T20:48:17.498Z,5.78
2022-09-09T20:53:21.243Z,5.55
2022-09-09T20:58:23.992Z,6.35
2022-09-09T21:03:28.952Z,6.65
2022-09-09T21:08:31.758Z,5.30
2022-09-09T21:13:39.119Z,5.32
2022-09-09T21:18:43.462Z,5.95
2022-09-09T21:23:46.600Z,5.75
2022-09-09T21:28:52.152Z,5.38
2022-09-09T21:33:56.746Z,5.07
2022-09-09T21:39:00.063Z,4.75
2022-09-09T21:44:03.317Z,4.95
2022-09-09T21:49:07.464Z,4.93
2022-09-09T21:54:10.264Z,5.03
2022-09-09T21:59:13.050Z,6.00
2022-09-09T22:04:17.374Z,4.65
2022-09-09T22:09:19.978Z,4.90
2022-09-09T22:14:23.384Z,5.03
2022-09-09T22:19:27.769Z,4.95
2022-09-09T22:24:30.581Z,5.00
2022-09-09T22:29:33.168Z,5.05
2022-09-09T22:34:37.347Z,5.22
2022-09-09T22:39:40.242Z,5.25
2022-09-09T22:44:42.759Z,5.97
2022-09-09T22:49:47.207Z,5.72
2022-09-09T22:54:51.007Z,5.85
2022-09-09T22:59:53.568Z,5.68
2022-09-09T23:04:57.511Z,5.63
2022-09-09T23:10:00.117Z,5.28
2022-09-09T23:15:02.719Z,5.63
2022-09-09T23:20:09.554Z,5.85
2022-09-09T23:25:12.153Z,6.03
2022-09-09T23:30:15.233Z,5.88
2022-09-09T23:35:19.748Z,6.35
2022-09-09T23:40:22.813Z,5.97
2022-09-09T23:45:25.486Z,6.38
2022-09-09T23:50:29.782Z,6.50
2022-09-09T23:55:32.289Z,7.18
